Time;durP1;ratioP1;P1;durP2;ratioP2;P2;SDS_P1;SDS_P2;PMS_P1;PMS_P2;Temp;Humidity;BMP_temperature;BMP_pressure;BME280_temperature;BME280_humidity;BME280_pressure;Samples;Min_cycle;Max_cycle;Signal;HPM_P1;HPM_P2
2021/05/08 00:02:05;;;;;;;7.50;4.47;;;;;;;3.88;85.26;96817.13;4951674;28;20257;-70
2021/05/08 00:04:32;;;;;;;7.47;4.47;;;;;;;3.87;85.45;96823.19;4955555;28;20230;-70
2021/05/08 00:07:00;;;;;;;6.45;4.35;;;;;;;3.81;84.95;96813.06;4956181;28;20642;-73
2021/05/08 00:09:27;;;;;;;6.47;4.38;;;;;;;3.77;84.87;96816.66;4949201;28;20686;-72
2021/05/08 00:11:57;;;;;;;5.57;3.72;;;;;;;3.70;84.89;96820.31;4944382;28;20199;-71
2021/05/08 00:14:25;;;;;;;5.95;3.95;;;;;;;3.72;85.61;96818.53;4941084;28;20734;-71
2021/05/08 00:16:52;;;;;;;6.65;3.50;;;;;;;3.70;85.85;96812.59;4947995;28;20193;-72
2021/05/08 00:19:20;;;;;;;5.40;3.60;;;;;;;3.74;85.74;96809.00;4955101;28;20672;-70
2021/05/08 00:21:47;;;;;;;7.03;4.60;;;;;;;3.73;85.97;96817.63;4954199;28;20219;-71
2021/05/08 00:24:13;;;;;;;9.30;4.25;;;;;;;3.73;85.82;96812.47;4938888;28;20214;-71
2021/05/08 00:26:41;;;;;;;9.15;4.35;;;;;;;3.62;86.29;96806.84;4942669;28;20191;-70
2021/05/08 00:29:09;;;;;;;5.95;3.97;;;;;;;3.51;86.63;96795.19;4947372;28;20678;-72
2021/05/08 00:31:36;;;;;;;8.20;4.35;;;;;;;3.62;86.56;96813.72;4943092;28;20276;-71
2021/05/08 00:34:04;;;;;;;7.57;4.00;;;;;;;3.60;86.82;96811.19;4945007;28;20574;-72
2021/05/08 00:36:31;;;;;;;4.95;3.17;;;;;;;3.51;86.83;96798.63;4951596;28;20190;-73
2021/05/08 00:38:59;;;;;;;10.43;4.20;;;;;;;3.49;86.56;96813.25;4954846;28;20257;-72
2021/05/08 00:41:26;;;;;;;5.05;3.40;;;;;;;3.57;86.56;96810.44;4960094;28;20186;-73
2021/05/08 00:43:56;;;;;;;4.72;3.50;;;;;;;3.39;86.32;96790.44;4951067;28;20782;-73
2021/05/08 00:46:24;;;;;;;6.20;4.55;;;;;;;3.52;86.76;96808.00;4953428;28;20524;-72
2021/05/08 00:48:51;;;;;;;11.68;4.60;;;;;;;3.52;86.81;96813.16;4952027;28;20533;-72
2021/05/08 00:51:19;;;;;;;6.70;3.85;;;;;;;3.41;86.18;96799.81;4956451;28;20254;-71
2021/05/08 00:53:46;;;;;;;6.30;3.50;;;;;;;3.41;86.48;96807.50;4948380;28;20226;-69
2021/05/08 00:56:14;;;;;;;8.65;4.43;;;;;;;3.33;86.99;96801.78;4946355;28;20626;-73
2021/05/08 00:58:41;;;;;;;7.15;4.50;;;;;;;3.29;86.97;96802.72;4950875;28;20187;-71
2021/05/08 01:01:08;;;;;;;4.55;3.38;;;;;;;3.36;86.24;96804.22;4955628;28;20247;-70
2021/05/08 01:03:36;;;;;;;7.15;4.50;;;;;;;3.36;86.43;96813.66;4959052;28;20241;-70
2021/05/08 01:06:04;;;;;;;7.32;4.32;;;;;;;3.31;86.34;96810.41;4942764;28;20582;-72
2021/05/08 01:08:31;;;;;;;8.13;3.10;;;;;;;3.26;86.28;96813.13;4943562;28;20499;-71
2021/05/08 01:10:58;;;;;;;8.57;4.40;;;;;;;3.22;86.25;96816.66;4948949;28;20194;-70
2021/05/08 01:13:26;;;;;;;7.97;4.50;;;;;;;3.11;86.68;96816.16;4948434;28;20588;-70
2021/05/08 01:15:54;;;;;;;6.05;3.95;;;;;;;3.03;87.13;96820.66;4957734;28;20195;-71
2021/05/08 01:18:22;;;;;;;7.57;3.92;;;;;;;3.03;87.11;96812.94;4943045;28;20194;-70
2021/05/08 01:20:50;;;;;;;6.45;3.88;;;;;;;3.15;87.27;96802.31;4947789;28;20693;-71
2021/05/08 01:23:19;;;;;;;6.07;4.05;;;;;;;3.20;87.17;96810.72;4950048;28;20195;-71
2021/05/08 01:25:46;;;;;;;5.78;3.80;;;;;;;3.23;87.58;96800.34;4958975;28;20604;-71
2021/05/08 01:28:13;;;;;;;11.80;4.03;;;;;;;3.27;87.11;96796.81;4952681;28;20206;-72
2021/05/08 01:30:40;;;;;;;7.72;4.20;;;;;;;3.30;87.52;96806.16;4950540;28;20596;-71
2021/05/08 01:33:07;;;;;;;5.85;3.55;;;;;;;3.29;86.91;96800.16;4954132;28;20216;-71
2021/05/08 01:35:35;;;;;;;6.13;4.43;;;;;;;3.27;87.03;96799.38;4947091;28;20230;-71
2021/05/08 01:38:03;;;;;;;6.25;4.25;;;;;;;3.28;87.26;96800.19;4942326;28;20190;-71
2021/05/08 01:40:33;;;;;;;7.22;4.10;;;;;;;3.30;86.93;96788.97;4949810;28;20644;-72
2021/05/08 01:43:00;;;;;;;6.45;3.70;;;;;;;3.28;87.03;96785.63;4953334;28;20195;-71
2021/05/08 01:45:28;;;;;;;7.53;3.90;;;;;;;3.24;86.67;96781.44;4940528;28;20542;-71
2021/05/08 01:47:57;;;;;;;6.00;3.70;;;;;;;3.21;86.68;96781.56;4953402;28;20323;-70
2021/05/08 01:50:27;;;;;;;8.57;4.25;;;;;;;3.18;86.73;96781.66;4931732;28;20289;-71
2021/05/08 01:52:54;;;;;;;9.90;3.70;;;;;;;3.17;87.43;96777.38;4943491;28;20222;-71
2021/05/08 01:55:24;;;;;;;6.38;4.38;;;;;;;3.05;87.36;96785.47;4947721;28;20278;-72
2021/05/08 01:57:53;;;;;;;7.70;3.60;;;;;;;2.96;88.30;96785.75;4960650;28;20692;-71
2021/05/08 02:00:22;;;;;;;7.63;4.18;;;;;;;2.97;88.44;96781.44;4952432;28;20879;-73
2021/05/08 02:03:15;;;;;;;14.55;4.40;;;;;;;2.94;87.89;96782.38;4946799;28;20496;-72
2021/05/08 02:05:45;;;;;;;8.40;3.88;;;;;;;2.96;87.74;96780.63;4946470;28;20230;-72
2021/05/08 02:08:13;;;;;;;6.00;3.92;;;;;;;2.92;87.17;96779.03;4945474;28;20244;-72
2021/05/08 02:10:43;;;;;;;5.07;3.58;;;;;;;2.84;86.97;96782.69;4950667;28;20230;-72
2021/05/08 02:13:13;;;;;;;9.30;4.15;;;;;;;2.74;87.13;96779.56;4945135;28;20226;-73
2021/05/08 02:15:41;;;;;;;5.80;4.00;;;;;;;2.81;87.68;96780.22;4951352;28;20620;-72
2021/05/08 02:18:09;;;;;;;7.78;3.60;;;;;;;2.83;86.93;96776.72;4947630;28;20234;-72
2021/05/08 02:20:38;;;;;;;4.88;2.97;;;;;;;2.77;86.99;96768.31;4951988;28;20227;-73
2021/05/08 02:23:08;;;;;;;6.60;4.10;;;;;;;2.66;87.66;96760.94;4954849;28;20192;-74
2021/05/08 02:25:34;;;;;;;5.63;4.20;;;;;;;2.70;88.26;96767.69;4942556;28;20219;-72
2021/05/08 02:28:07;;;;;;;6.05;3.95;;;;;;;2.52;88.14;96737.41;4944453;28;20210;-73
2021/05/08 02:30:37;;;;;;;5.95;4.10;;;;;;;2.74;87.50;96769.28;4956782;28;20249;-73
2021/05/08 02:33:04;;;;;;;9.15;3.55;;;;;;;2.59;87.51;96769.69;4944895;28;20277;-72
2021/05/08 02:35:34;;;;;;;8.65;3.80;;;;;;;2.57;87.15;96765.50;4947791;28;20895;-73
2021/05/08 02:38:02;;;;;;;7.00;3.70;;;;;;;2.66;87.02;96765.25;4949089;28;20610;-72
2021/05/08 02:40:31;;;;;;;7.38;3.60;;;;;;;2.64;86.47;96767.03;4948314;28;20248;-72
2021/05/08 02:42:58;;;;;;;9.32;3.80;;;;;;;2.53;87.47;96764.75;4945931;28;20564;-72
2021/05/08 02:45:25;;;;;;;6.75;3.60;;;;;;;2.57;87.37;96756.06;4950595;28;20658;-73
2021/05/08 02:47:53;;;;;;;6.93;3.25;;;;;;;2.54;87.74;96765.59;4947538;28;20506;-73
2021/05/08 02:50:22;;;;;;;6.10;3.55;;;;;;;2.61;87.51;96773.09;4953703;28;20872;-72
2021/05/08 02:52:50;;;;;;;7.30;3.53;;;;;;;2.51;87.41;96766.50;4951641;28;20205;-72
2021/05/08 02:55:18;;;;;;;4.30;3.15;;;;;;;2.52;87.34;96773.34;4956970;28;20231;-73
2021/05/08 02:57:45;;;;;;;6.90;3.80;;;;;;;2.36;88.25;96766.94;4946357;28;20201;-72
2021/05/08 03:00:14;;;;;;;5.65;3.17;;;;;;;2.30;88.69;96777.41;4956702;28;20231;-73
2021/05/08 03:02:42;;;;;;;8.07;4.60;;;;;;;2.35;88.97;96772.94;4945884;28;20628;-72
2021/05/08 03:05:10;;;;;;;7.10;3.85;;;;;;;2.39;88.46;96766.88;4944351;28;20236;-73
2021/05/08 03:07:37;;;;;;;8.60;4.32;;;;;;;2.37;88.42;96758.34;4941444;28;20569;-73
2021/05/08 03:10:06;;;;;;;10.38;4.10;;;;;;;2.45;88.57;96776.97;4939360;28;20622;-72
2021/05/08 03:12:33;;;;;;;5.63;3.65;;;;;;;2.46;87.97;96768.38;4949683;28;20254;-73
2021/05/08 03:15:01;;;;;;;7.43;3.72;;;;;;;2.36;88.21;96764.38;4959818;28;20220;-72
2021/05/08 03:17:29;;;;;;;9.32;4.20;;;;;;;2.39;88.97;96764.28;4950253;28;20201;-69
2021/05/08 03:19:58;;;;;;;5.13;3.53;;;;;;;2.42;88.63;96751.34;4946932;28;20314;-73
2021/05/08 03:22:26;;;;;;;4.80;3.13;;;;;;;2.43;87.95;96753.03;4957212;28;20218;-70
2021/05/08 03:24:54;;;;;;;6.75;3.67;;;;;;;2.43;87.90;96745.34;4957760;28;20241;-70
2021/05/08 03:27:22;;;;;;;8.80;4.07;;;;;;;2.48;87.86;96755.47;4958781;28;20677;-71
2021/05/08 03:29:49;;;;;;;7.88;3.67;;;;;;;2.44;87.95;96754.72;4950702;28;20237;-70
2021/05/08 03:32:17;;;;;;;5.03;3.40;;;;;;;2.44;88.10;96753.88;4959365;28;20210;-72
2021/05/08 03:34:44;;;;;;;6.43;4.13;;;;;;;2.39;88.30;96751.47;4949029;28;20227;-72
2021/05/08 03:37:11;;;;;;;8.05;4.30;;;;;;;2.39;88.28;96751.47;4944666;28;20291;-72
2021/05/08 03:39:38;;;;;;;4.95;3.40;;;;;;;2.37;88.57;96740.38;4948142;28;20746;-72
2021/05/08 03:42:06;;;;;;;6.38;3.53;;;;;;;2.41;88.38;96751.38;4947076;28;20603;-72
2021/05/08 03:44:33;;;;;;;13.40;3.45;;;;;;;2.40;88.40;96755.69;4932270;28;20218;-72
2021/05/08 03:47:00;;;;;;;5.28;3.10;;;;;;;2.35;88.14;96765.25;4942455;28;20197;-72
2021/05/08 03:49:27;;;;;;;7.43;4.18;;;;;;;2.25;88.84;96757.84;4951296;28;20687;-72
2021/05/08 03:51:59;;;;;;;5.65;3.60;;;;;;;2.31;88.72;96761.09;4950988;28;20205;-72
2021/05/08 03:54:29;;;;;;;7.88;3.78;;;;;;;2.27;88.53;96758.66;4949658;28;20236;-72
2021/05/08 03:56:57;;;;;;;6.38;3.40;;;;;;;2.26;88.05;96756.94;4939796;28;20179;-73
2021/05/08 03:59:24;;;;;;;4.60;3.08;;;;;;;2.22;87.47;96753.63;4942798;28;20274;-73
2021/05/08 04:01:51;;;;;;;6.55;3.50;;;;;;;1.99;87.68;96750.84;4941595;28;20638;-72
2021/05/08 04:04:18;;;;;;;4.70;2.97;;;;;;;2.03;88.04;96752.44;4937189;28;20539;-71
2021/05/08 04:06:45;;;;;;;4.38;3.05;;;;;;;2.03;88.76;96754.16;4946376;28;20187;-72
2021/05/08 04:09:12;;;;;;;8.88;3.75;;;;;;;2.12;88.64;96743.66;4949942;28;20226;-71
2021/05/08 04:11:39;;;;;;;6.35;3.65;;;;;;;2.09;88.10;96720.63;4948411;28;20196;-71
2021/05/08 04:14:07;;;;;;;5.07;3.45;;;;;;;2.30;88.35;96741.44;4945425;28;20223;-72
2021/05/08 04:16:34;;;;;;;6.50;3.40;;;;;;;2.36;88.61;96740.44;4949278;28;20587;-71
2021/05/08 04:19:02;;;;;;;4.93;3.38;;;;;;;2.45;88.73;96737.59;4944368;28;20338;-70
2021/05/08 04:21:30;;;;;;;5.93;3.00;;;;;;;2.47;88.35;96741.81;4948359;28;20208;-71
2021/05/08 04:23:57;;;;;;;5.15;3.17;;;;;;;2.41;88.64;96744.53;4949169;28;20687;-70
2021/05/08 04:26:25;;;;;;;6.55;3.50;;;;;;;2.44;88.44;96744.44;4951515;28;20587;-70
2021/05/08 04:28:51;;;;;;;5.57;3.97;;;;;;;2.40;88.00;96732.59;4944733;28;20226;-71
2021/05/08 04:31:20;;;;;;;5.10;3.60;;;;;;;2.49;88.00;96734.88;4942342;28;20206;-71
2021/05/08 04:33:47;;;;;;;7.25;3.63;;;;;;;2.55;88.10;96734.72;4945417;28;20618;-71
2021/05/08 04:36:14;;;;;;;9.98;3.58;;;;;;;2.55;88.61;96724.44;4942999;28;20201;-71
2021/05/08 04:38:42;;;;;;;4.22;2.83;;;;;;;2.63;89.19;96732.78;4949380;28;20550;-71
2021/05/08 04:41:10;;;;;;;5.10;2.92;;;;;;;2.66;89.11;96717.25;4949989;28;20654;-71
2021/05/08 04:43:37;;;;;;;4.68;3.40;;;;;;;2.72;88.69;96723.97;4939645;28;20192;-71
2021/05/08 04:46:04;;;;;;;3.22;2.83;;;;;;;2.61;88.39;96720.84;4946404;28;20507;-71
2021/05/08 04:48:33;;;;;;;10.93;3.78;;;;;;;2.70;87.71;96726.56;4947473;28;20183;-71
2021/05/08 04:51:01;;;;;;;12.35;3.30;;;;;;;2.54;87.76;96722.78;4952074;28;20230;-71
2021/05/08 04:53:28;;;;;;;8.20;3.40;;;;;;;2.62;87.87;96728.53;4943039;28;20258;-70
2021/05/08 04:55:55;;;;;;;6.05;3.70;;;;;;;2.74;87.96;96735.03;4939623;28;20195;-71
2021/05/08 04:58:22;;;;;;;5.45;3.63;;;;;;;2.80;87.11;96730.53;4945504;28;20249;-70
2021/05/08 05:00:49;;;;;;;6.32;3.70;;;;;;;2.77;86.96;96733.22;4943345;28;20723;-71
2021/05/08 05:03:16;;;;;;;6.85;3.13;;;;;;;2.74;87.10;96730.75;4942425;28;20678;-70
2021/05/08 05:05:43;;;;;;;4.30;2.83;;;;;;;2.81;87.29;96724.50;4942063;28;20227;-72
2021/05/08 05:08:10;;;;;;;6.45;3.53;;;;;;;2.94;86.80;96736.09;4928592;28;20618;-70
2021/05/08 05:10:37;;;;;;;5.15;3.78;;;;;;;3.05;86.52;96731.50;4946532;28;20690;-71
2021/05/08 05:13:04;;;;;;;6.32;3.60;;;;;;;2.96;86.62;96738.66;4945266;28;20262;-70
2021/05/08 05:15:31;;;;;;;6.75;3.63;;;;;;;3.05;86.85;96738.34;4942417;28;20211;-70
2021/05/08 05:17:58;;;;;;;5.60;3.50;;;;;;;3.00;86.23;96735.94;4947948;28;20199;-71
2021/05/08 05:20:25;;;;;;;7.03;2.92;;;;;;;2.95;85.92;96732.66;4949126;28;20254;-71
2021/05/08 05:22:53;;;;;;;7.00;3.50;;;;;;;3.11;86.54;96744.16;4948918;28;20190;-71
2021/05/08 05:25:20;;;;;;;6.60;4.03;;;;;;;3.38;85.91;96745.88;4959193;28;20702;-70
2021/05/08 05:27:47;;;;;;;5.18;3.35;;;;;;;3.55;84.89;96747.91;4955604;28;20448;-70
2021/05/08 05:30:14;;;;;;;5.63;3.35;;;;;;;3.75;84.81;96743.78;4952173;28;20548;-71
2021/05/08 05:32:42;;;;;;;7.40;2.97;;;;;;;3.84;83.86;96738.34;4960341;28;20288;-70
2021/05/08 05:35:09;;;;;;;8.02;3.90;;;;;;;4.01;84.60;96744.56;4940693;28;20233;-72
2021/05/08 05:37:36;;;;;;;8.30;4.35;;;;;;;3.98;84.28;96736.13;4951987;28;20195;-72
2021/05/08 05:40:06;;;;;;;14.45;5.55;;;;;;;4.28;84.01;96729.94;4948559;28;20262;-71
2021/05/08 05:42:32;;;;;;;12.95;6.05;;;;;;;4.53;83.75;96726.44;4947517;28;20185;-71
2021/05/08 05:44:59;;;;;;;6.50;4.70;;;;;;;4.77;83.81;96725.50;4949553;28;20229;-71
2021/05/08 05:47:28;;;;;;;12.30;4.22;;;;;;;5.10;83.13;96728.56;4940893;28;20626;-71
2021/05/08 05:49:57;;;;;;;10.93;4.97;;;;;;;5.34;82.63;96723.28;4950602;28;20796;-73
2021/05/08 05:52:24;;;;;;;10.65;4.05;;;;;;;5.58;81.43;96730.03;4946603;28;20246;-72
2021/05/08 05:54:52;;;;;;;4.20;3.10;;;;;;;5.85;79.21;96734.13;4954957;28;20674;-72
2021/05/08 05:57:20;;;;;;;5.43;3.38;;;;;;;6.07;77.67;96724.56;4957105;28;20258;-70
2021/05/08 05:59:52;;;;;;;6.38;3.92;;;;;;;6.26;76.26;96719.44;4945770;28;20281;-72
2021/05/08 06:02:19;;;;;;;11.63;3.90;;;;;;;6.46;74.81;96730.59;4948126;28;20207;-70
2021/05/08 06:04:46;;;;;;;7.45;4.68;;;;;;;6.47;74.59;96742.59;4947625;28;20294;-72
2021/05/08 06:07:13;;;;;;;6.30;4.38;;;;;;;6.74;74.37;96723.28;4960149;28;20199;-75
2021/05/08 06:09:40;;;;;;;6.50;4.10;;;;;;;6.99;73.96;96736.78;4939609;28;20234;-75
2021/05/08 06:12:07;;;;;;;4.05;3.00;;;;;;;7.00;73.29;96738.44;4952342;28;20211;-74
2021/05/08 06:14:35;;;;;;;4.47;3.47;;;;;;;7.18;72.29;96732.44;4946100;28;20754;-75
2021/05/08 06:17:06;;;;;;;5.53;3.00;;;;;;;7.37;72.51;96735.00;4947349;28;20190;-74
2021/05/08 06:19:33;;;;;;;3.95;2.80;;;;;;;7.48;71.36;96732.72;4951897;28;20233;-76
2021/05/08 06:22:02;;;;;;;3.58;2.47;;;;;;;7.51;69.43;96730.03;4939903;28;20701;-74
2021/05/08 06:24:29;;;;;;;4.68;2.45;;;;;;;7.65;70.21;96727.59;4947306;28;20702;-75
2021/05/08 06:26:56;;;;;;;4.20;2.50;;;;;;;7.79;69.18;96735.56;4953699;28;20195;-74
2021/05/08 06:29:22;;;;;;;3.80;2.00;;;;;;;7.89;68.64;96724.66;4956664;28;20221;-74
2021/05/08 06:31:50;;;;;;;9.35;2.20;;;;;;;8.09;68.63;96731.44;4948234;28;20222;-76
2021/05/08 06:34:17;;;;;;;2.05;1.58;;;;;;;8.13;68.20;96738.13;4953048;28;20225;-75
2021/05/08 06:36:45;;;;;;;2.92;1.48;;;;;;;8.22;66.59;96740.28;4954176;28;20206;-73
2021/05/08 06:39:12;;;;;;;4.68;1.75;;;;;;;8.41;66.83;96737.53;4945311;28;20314;-73
2021/05/08 06:41:39;;;;;;;37.13;4.30;;;;;;;8.58;65.73;96732.34;4944739;28;20198;-75
2021/05/08 06:44:06;;;;;;;4.05;1.40;;;;;;;8.77;64.77;96730.44;4956371;28;20477;-73
2021/05/08 06:46:33;;;;;;;9.70;2.50;;;;;;;8.92;64.33;96727.03;4953991;28;20203;-73
2021/05/08 06:49:01;;;;;;;2.63;1.83;;;;;;;9.09;64.95;96716.56;4946202;28;20469;-73
2021/05/08 06:51:29;;;;;;;1.40;1.23;;;;;;;9.31;63.59;96717.06;4950713;28;21137;-73
2021/05/08 06:53:56;;;;;;;5.40;1.67;;;;;;;9.49;63.23;96713.47;4953482;28;20458;-73
2021/05/08 06:56:25;;;;;;;8.10;1.80;;;;;;;9.77;62.66;96716.19;4949441;28;21016;-75
2021/05/08 06:58:53;;;;;;;4.17;1.97;;;;;;;10.00;61.36;96710.50;4952972;28;20454;-74
2021/05/08 07:01:20;;;;;;;2.03;1.30;;;;;;;9.92;60.66;96706.66;4918544;28;20889;-73
2021/05/08 07:03:47;;;;;;;2.90;1.50;;;;;;;10.06;61.33;96702.38;4953001;28;20477;-73
2021/05/08 07:06:14;;;;;;;5.50;1.73;;;;;;;10.18;60.26;96691.25;4950916;28;20924;-74
2021/05/08 07:08:41;;;;;;;3.93;2.00;;;;;;;10.39;60.76;96704.78;4945019;28;20917;-74
2021/05/08 07:11:13;;;;;;;3.03;1.80;;;;;;;10.45;60.10;96694.00;4953589;28;20921;-74
2021/05/08 07:13:40;;;;;;;4.00;1.33;;;;;;;10.68;59.94;96703.88;4946602;28;20984;-74
2021/05/08 07:16:07;;;;;;;2.40;1.60;;;;;;;10.70;60.11;96700.22;4954124;28;20465;-73
2021/05/08 07:18:34;;;;;;;2.93;1.60;;;;;;;10.68;59.67;96699.47;4952520;28;21079;-73
2021/05/08 07:21:01;;;;;;;4.23;1.83;;;;;;;10.72;60.32;96700.97;4944878;28;20453;-74
2021/05/08 07:23:29;;;;;;;2.80;1.40;;;;;;;10.74;60.43;96701.72;4953926;28;20531;-74
2021/05/08 07:25:56;;;;;;;2.47;1.53;;;;;;;10.89;59.01;96705.16;4958408;28;20453;-74
2021/05/08 07:28:24;;;;;;;3.93;1.70;;;;;;;10.85;59.78;96699.31;4960580;28;20816;-73
2021/05/08 07:30:52;;;;;;;2.47;1.53;;;;;;;11.12;59.50;96702.78;4957181;28;20439;-73
2021/05/08 07:33:20;;;;;;;4.07;2.07;;;;;;;11.18;58.13;96693.75;4953870;28;20531;-73
2021/05/08 07:35:47;;;;;;;3.33;1.50;;;;;;;11.27;59.15;96701.00;4953476;28;20525;-73
2021/05/08 07:38:15;;;;;;;4.80;1.40;;;;;;;11.44;58.65;96699.00;4956339;28;20433;-72
2021/05/08 07:40:43;;;;;;;2.63;1.60;;;;;;;11.61;57.48;96688.38;4950154;28;20466;-74
2021/05/08 07:43:11;;;;;;;6.93;1.87;;;;;;;11.74;58.47;96696.22;4942787;28;20766;-75
2021/05/08 07:45:38;;;;;;;4.73;1.77;;;;;;;11.94;57.19;96693.16;4946900;28;20475;-74
2021/05/08 07:48:06;;;;;;;4.80;1.50;;;;;;;12.07;56.59;96694.84;4950210;28;20765;-73
2021/05/08 07:50:33;;;;;;;3.03;1.60;;;;;;;11.94;55.59;96682.72;4949994;28;20475;-73
2021/05/08 07:53:00;;;;;;;7.23;1.60;;;;;;;12.00;56.93;96690.97;4955419;28;20457;-74
2021/05/08 07:55:27;;;;;;;3.30;1.77;;;;;;;11.76;56.35;96679.53;4954324;28;20477;-72
2021/05/08 07:57:55;;;;;;;2.63;1.33;;;;;;;11.89;56.48;96696.06;4949011;28;20520;-73
2021/05/08 08:00:22;;;;;;;7.03;2.17;;;;;;;12.06;55.59;96687.97;4944788;28;21134;-75
2021/05/08 08:02:49;;;;;;;3.80;2.03;;;;;;;12.23;56.89;96690.28;4949008;28;20883;-73
2021/05/08 08:05:18;;;;;;;2.33;1.43;;;;;;;12.32;55.19;96684.47;4940219;28;20992;-73
2021/05/08 08:07:45;;;;;;;22.70;2.03;;;;;;;12.36;56.31;96685.09;4944831;28;20442;-74
2021/05/08 08:10:13;;;;;;;3.10;1.30;;;;;;;12.32;54.10;96688.81;4954166;28;20468;-74
2021/05/08 08:12:41;;;;;;;3.00;1.30;;;;;;;12.26;54.09;96689.25;4950285;28;20465;-73
2021/05/08 08:15:11;;;;;;;3.00;1.50;;;;;;;12.12;54.98;96687.56;4951698;28;20469;-74
2021/05/08 08:17:38;;;;;;;3.93;1.40;;;;;;;12.36;55.88;96685.91;4939810;28;20898;-74
2021/05/08 08:20:08;;;;;;;1.87;1.07;;;;;;;12.76;53.63;96684.88;4944540;28;20914;-74
2021/05/08 08:22:36;;;;;;;3.90;1.40;;;;;;;12.78;53.75;96681.22;4939671;28;20442;-71
2021/05/08 08:25:04;;;;;;;2.60;1.37;;;;;;;12.73;53.34;96685.06;4949189;28;20524;-72
2021/05/08 08:27:31;;;;;;;3.37;1.90;;;;;;;12.82;53.53;96690.50;4951859;28;20441;-71
2021/05/08 08:29:58;;;;;;;3.23;1.30;;;;;;;12.82;53.29;96685.28;4947196;28;21013;-70
2021/05/08 08:32:26;;;;;;;1.50;1.10;;;;;;;12.85;53.19;96679.81;4947709;28;20971;-70
2021/05/08 08:34:54;;;;;;;2.17;1.43;;;;;;;12.82;52.36;96679.19;4951782;28;20985;-72
2021/05/08 08:37:21;;;;;;;6.13;2.03;;;;;;;13.08;52.04;96673.88;4952215;28;20477;-71
2021/05/08 08:39:49;;;;;;;4.93;1.87;;;;;;;13.37;51.57;96674.41;4952548;28;20980;-71
2021/05/08 08:42:22;;;;;;;2.13;1.13;;;;;;;13.80;50.85;96675.59;4944938;28;20890;-71
2021/05/08 08:44:49;;;;;;;2.50;1.50;;;;;;;14.03;50.37;96672.97;4946596;28;20541;-73
2021/05/08 08:47:30;;;;;;;4.23;1.50;;;;;;;13.80;50.85;96670.34;4954216;28;20916;-71
2021/05/08 08:50:06;;;;;;;2.90;1.40;;;;;;;14.00;49.66;96656.66;4944065;28;20861;-70
2021/05/08 08:52:33;;;;;;;4.47;1.40;;;;;;;14.07;49.36;96652.63;4949238;28;20512;-71
2021/05/08 08:55:01;;;;;;;4.13;1.60;;;;;;;14.20;49.40;96653.38;4943120;28;20843;-73
2021/05/08 08:57:34;;;;;;;2.67;1.40;;;;;;;14.13;48.26;96658.22;4952652;28;20433;-70
2021/05/08 09:00:04;;;;;;;5.00;1.77;;;;;;;14.15;48.92;96655.50;4960255;28;20476;-71
2021/05/08 09:02:31;;;;;;;8.43;1.50;;;;;;;14.03;49.89;96651.16;4956497;28;20764;-70
2021/05/08 09:04:59;;;;;;;3.03;1.03;;;;;;;14.27;50.60;96644.13;4951520;28;20888;-71
2021/05/08 09:07:28;;;;;;;3.07;1.20;;;;;;;14.38;49.04;96644.16;4950749;28;20932;-72
2021/05/08 09:09:56;;;;;;;1.73;1.23;;;;;;;14.52;47.63;96636.06;4928616;28;20792;-73
2021/05/08 09:12:26;;;;;;;3.47;1.50;;;;;;;14.28;48.76;96633.53;4944718;28;20441;-72
2021/05/08 09:14:55;;;;;;;7.73;1.40;;;;;;;14.27;50.12;96637.13;4927885;28;20489;-72
2021/05/08 09:17:25;;;;;;;1.70;1.00;;;;;;;13.86;49.89;96638.53;4947210;28;20752;-70
2021/05/08 09:19:59;;;;;;;1.77;1.30;;;;;;;13.61;50.56;96636.03;4945486;28;20490;-70
2021/05/08 09:22:30;;;;;;;2.63;1.30;;;;;;;13.66;49.45;96620.84;4955546;28;20938;-73
2021/05/08 09:25:00;;;;;;;3.37;1.40;;;;;;;13.97;50.10;96625.44;4935454;28;20455;-72
2021/05/08 09:27:35;;;;;;;4.23;1.40;;;;;;;14.11;50.09;96625.25;4950448;28;20634;-71
2021/05/08 09:30:21;;;;;;;1.90;1.30;;;;;;;14.21;48.77;96618.38;4949319;28;20953;-70
2021/05/08 09:32:59;;;;;;;2.30;1.33;;;;;;;14.31;50.86;96635.09;4943578;28;21098;-70
2021/05/08 09:35:27;;;;;;;5.93;1.40;;;;;;;14.58;48.29;96627.75;4944562;28;21008;-74
2021/05/08 09:38:08;;;;;;;5.93;1.40;;;;;;;14.66;48.00;96625.38;4944111;28;20446;-72
2021/05/08 09:40:41;;;;;;;4.03;1.30;;;;;;;15.02;47.17;96623.31;4950429;28;20469;-71
2021/05/08 09:43:10;;;;;;;2.97;1.43;;;;;;;15.26;47.19;96615.28;4958121;28;20780;-73
2021/05/08 09:45:38;;;;;;;1.93;1.20;;;;;;;15.25;47.72;96613.63;4949956;28;20530;-71
2021/05/08 09:48:17;;;;;;;4.10;1.20;;;;;;;15.23;47.02;96610.28;4953536;28;20881;-71
2021/05/08 09:51:15;;;;;;;1.30;1.20;;;;;;;15.35;47.80;96607.56;4947211;28;20766;-71
2021/05/08 09:53:43;;;;;;;2.13;1.20;;;;;;;15.80;46.84;96606.44;4950358;28;23324;-70
2021/05/08 09:56:34;;;;;;;4.90;1.63;;;;;;;15.70;46.70;96602.06;4951481;28;20935;-72
2021/05/08 09:59:27;;;;;;;4.77;1.40;;;;;;;15.91;47.23;96593.25;4949772;28;20475;-74
2021/05/08 10:02:14;;;;;;;5.43;2.10;;;;;;;16.07;45.72;96598.06;4946807;28;20913;-75
2021/05/08 10:04:58;;;;;;;1.73;1.00;;;;;;;16.11;45.41;96589.78;4944002;28;20969;-72
2021/05/08 10:07:28;;;;;;;1.80;1.20;;;;;;;16.14;45.75;96583.44;4944428;28;20937;-75
2021/05/08 10:09:59;;;;;;;1.47;1.10;;;;;;;16.38;46.17;96570.91;4945016;28;20472;-73
2021/05/08 10:12:28;;;;;;;4.10;1.53;;;;;;;16.44;46.37;96592.25;4948630;28;20827;-72
2021/05/08 10:14:56;;;;;;;3.13;1.40;;;;;;;16.47;45.21;96580.63;4947619;28;20804;-73
2021/05/08 10:17:25;;;;;;;2.63;1.20;;;;;;;17.13;44.56;96582.66;4953007;28;20940;-73
2021/05/08 10:19:58;;;;;;;3.80;1.60;;;;;;;18.14;44.80;96573.28;4954722;28;21190;-74
2021/05/08 10:22:32;;;;;;;4.50;1.33;;;;;;;19.06;42.91;96564.53;4946344;28;20528;-73
2021/05/08 10:25:03;;;;;;;1.30;1.20;;;;;;;19.50;40.54;96580.41;4941855;28;20957;-76
2021/05/08 10:27:30;;;;;;;1.93;1.33;;;;;;;18.97;40.84;96571.53;4942286;28;20835;-73
2021/05/08 10:29:57;;;;;;;5.07;1.47;;;;;;;;;;4938837;28;20493;-74
2021/05/08 10:32:24;;;;;;;1.93;1.30;;;;;;;17.96;nan;96569.72;4949519;28;20453;-74
2021/05/08 10:34:58;;;;;;;2.50;1.67;;;;;;;18.07;nan;96566.94;4942443;28;20477;-73
2021/05/08 10:37:28;;;;;;;8.40;1.43;;;;;;;18.74;nan;96565.00;4935312;28;20453;-72
2021/05/08 10:39:58;;;;;;;2.00;1.50;;;;;;;;;;4943347;28;20455;-73
2021/05/08 10:42:37;;;;;;;2.57;1.40;;;;;;;19.98;nan;96549.16;4945042;28;20811;-74
2021/05/08 10:45:07;;;;;;;2.13;1.30;;;;;;;19.46;nan;96552.63;4941291;28;20490;-73
2021/05/08 10:48:11;;;;;;;2.10;1.23;;;;;;;18.08;nan;96531.72;4944746;28;20811;-72
2021/05/08 10:50:47;;;;;;;4.43;1.60;;;;;;;18.00;nan;96526.31;4913650;28;20474;-73
2021/05/08 10:53:16;;;;;;;2.73;1.50;;;;;;;17.87;nan;96502.09;4944194;28;20840;-73
2021/05/08 10:55:46;;;;;;;2.00;1.40;;;;;;;17.60;nan;96530.94;4939256;28;20525;-74
2021/05/08 10:58:28;;;;;;;6.47;2.73;;;;;;;17.25;nan;96526.34;4947375;28;20442;-72
2021/05/08 11:00:58;;;;;;;11.40;2.00;;;;;;;16.99;nan;96527.81;4945151;28;21012;-72
2021/05/08 11:03:27;;;;;;;8.10;1.50;;;;;;;16.72;nan;96523.16;4947896;28;20841;-74
2021/05/08 11:05:59;;;;;;;5.30;1.23;;;;;;;16.57;nan;96527.13;4946706;28;20910;-73
2021/05/08 11:08:43;;;;;;;4.67;1.33;;;;;;;16.50;nan;96522.56;4946230;28;21016;-73
2021/05/08 11:11:12;;;;;;;3.80;1.80;;;;;;;16.42;nan;96525.03;4947126;28;21006;-73
2021/05/08 11:13:55;;;;;;;3.43;1.60;;;;;;;16.47;nan;96528.06;4943839;28;20993;-74
2021/05/08 11:16:26;;;;;;;3.23;1.77;;;;;;;16.74;nan;96517.78;4942769;28;20735;-72
2021/05/08 11:18:54;;;;;;;2.90;1.83;;;;;;;16.64;nan;96509.88;4950525;28;20952;-73
2021/05/08 11:21:43;;;;;;;2.13;1.67;;;;;;;16.73;nan;96522.22;4943656;28;20906;-74
2021/05/08 11:24:12;;;;;;;3.50;1.70;;;;;;;16.45;nan;96528.22;4944918;28;20482;-73
2021/05/08 11:26:44;;;;;;;2.77;1.60;;;;;;;16.32;nan;96513.59;4952834;28;20449;-72
2021/05/08 11:29:18;;;;;;;2.10;1.50;;;;;;;16.35;nan;96498.38;4942906;28;20483;-73
2021/05/08 11:31:47;;;;;;;2.20;1.87;;;;;;;16.49;nan;96492.00;4944695;28;20446;-73
2021/05/08 11:34:16;;;;;;;11.07;2.60;;;;;;;16.69;nan;96502.41;4947175;28;21028;-71
2021/05/08 11:36:45;;;;;;;4.43;2.27;;;;;;;17.03;nan;96510.78;4941054;28;20856;-73
2021/05/08 11:39:14;;;;;;;3.73;1.60;;;;;;;16.84;nan;96510.75;4946883;28;20840;-73
2021/05/08 11:41:42;;;;;;;2.63;1.73;;;;;;;16.50;nan;96509.41;4947460;28;20478;-72
2021/05/08 11:44:09;;;;;;;6.00;2.80;;;;;;;16.70;nan;96503.28;4917349;29;20946;-74
2021/05/08 11:46:38;;;;;;;2.80;1.53;;;;;;;16.75;nan;96490.53;4943272;28;20581;-73
2021/05/08 11:49:05;;;;;;;2.70;1.27;;;;;;;16.75;nan;96490.53;4941990;28;20831;-74
2021/05/08 11:51:32;;;;;;;7.20;1.60;;;;;;;16.67;nan;96490.38;4949253;28;20961;-73